createdAt,value
2017-04-04T00:00:26.969Z,1007.56
2017-04-04T00:00:53.464Z,1007.64
2017-04-04T00:01:15.206Z,1007.61
2017-04-04T00:01:36.916Z,1007.35
2017-04-04T00:02:29.873Z,1007.58
2017-04-04T00:02:51.654Z,1007.54
2017-04-04T00:03:49.918Z,1007.41
2017-04-04T00:04:11.707Z,1007.48
2017-04-04T00:05:04.720Z,1007.70
2017-04-04T00:05:31.343Z,1007.58
2017-04-04T00:05:53.012Z,1007.47
2017-04-04T00:06:19.522Z,1007.33
2017-04-04T00:06:41.241Z,1007.71
2017-04-04T00:07:07.756Z,1007.74
2017-04-04T00:07:29.467Z,1007.42
2017-04-04T00:07:55.986Z,1007.33
2017-04-04T00:08:17.764Z,1007.61
2017-04-04T00:08:39.488Z,1007.71
2017-04-04T00:09:01.204Z,1008.10
2017-04-04T00:09:27.805Z,1008.12
2017-04-04T00:09:49.548Z,1007.19
2017-04-04T00:10:11.254Z,1007.47
2017-04-04T00:10:32.965Z,1007.45
2017-04-04T00:10:54.677Z,1007.31
2017-04-04T00:11:53.986Z,1008.01
2017-04-04T00:12:20.605Z,1007.90
2017-04-04T00:12:42.311Z,1007.76
2017-04-04T00:13:08.819Z,1007.49
2017-04-04T00:13:30.524Z,1007.56
2017-04-04T00:13:52.268Z,1007.64
2017-04-04T00:14:45.231Z,1007.06
2017-04-04T00:15:38.275Z,1007.28
2017-04-04T00:16:04.747Z,1007.21
2017-04-04T00:16:26.433Z,1007.31
2017-04-04T00:16:52.942Z,1007.33
2017-04-04T00:17:19.431Z,1007.43
2017-04-04T00:17:45.922Z,1007.54
2017-04-04T00:18:07.739Z,1007.51
2017-04-04T00:18:34.243Z,1007.40
2017-04-04T00:18:55.922Z,1007.37
2017-04-04T00:19:22.524Z,1007.21
2017-04-04T00:19:44.154Z,1007.36
2017-04-04T00:20:10.642Z,1007.61
2017-04-04T00:20:32.367Z,1007.45
2017-04-04T00:20:54.081Z,1007.20
2017-04-04T00:21:56.574Z,1007.54
2017-04-04T00:22:49.536Z,1007.34
2017-04-04T00:23:47.815Z,1007.61
2017-04-04T00:24:14.322Z,1007.28
2017-04-04T00:25:07.316Z,1007.43
2017-04-04T00:25:29.045Z,1007.30
2017-04-04T00:25:50.761Z,1007.38
2017-04-04T00:26:12.533Z,1007.17
2017-04-04T00:27:05.516Z,1007.31
2017-04-04T00:27:32.132Z,1007.54
2017-04-04T00:27:53.834Z,1007.45
2017-04-04T00:28:56.446Z,1007.23
2017-04-04T00:29:18.149Z,1007.14
2017-04-04T00:29:39.860Z,1007.29
2017-04-04T00:30:38.292Z,1007.26
2017-04-04T00:31:00.002Z,1007.11
2017-04-04T00:32:07.317Z,1007.30
2017-04-04T00:32:28.988Z,1007.26
2017-04-04T00:33:31.502Z,1007.33
2017-04-04T00:33:53.212Z,1007.27
2017-04-04T00:35:00.488Z,1007.24
2017-04-04T00:35:22.210Z,1007.24
2017-04-04T00:36:20.848Z,1007.36
2017-04-04T00:36:42.633Z,1007.44
2017-04-04T00:37:07.028Z,1007.15
2017-04-04T00:37:28.746Z,1007.41
2017-04-04T00:38:21.865Z,1007.22
2017-04-04T00:39:24.499Z,1007.31
2017-04-04T00:39:51.017Z,1007.94
2017-04-04T00:40:17.494Z,1007.92
2017-04-04T00:40:39.221Z,1007.57
2017-04-04T00:41:00.935Z,1007.16
2017-04-04T00:41:22.638Z,1007.21
2017-04-04T00:41:49.111Z,1007.16
2017-04-04T00:42:10.913Z,1007.21
2017-04-04T00:42:32.695Z,1007.24
2017-04-04T00:43:31.102Z,1007.22
2017-04-04T00:43:52.826Z,1007.36
2017-04-04T00:44:14.545Z,1007.30
2017-04-04T00:45:12.936Z,1007.36
2017-04-04T00:45:34.651Z,1007.30
2017-04-04T00:46:01.159Z,1007.26
2017-04-04T00:46:22.985Z,1007.28
2017-04-04T00:46:44.758Z,1007.13
2017-04-04T00:47:06.471Z,1007.30
2017-04-04T00:47:28.247Z,1007.28
2017-04-04T00:47:54.744Z,1007.29
2017-04-04T00:48:16.444Z,1007.23
2017-04-04T00:48:43.052Z,1007.36
2017-04-04T00:49:04.687Z,1007.32
2017-04-04T00:49:31.196Z,1007.33
2017-04-04T00:49:52.928Z,1007.16
2017-04-04T00:50:19.530Z,1007.38
2017-04-04T00:50:41.166Z,1007.42
2017-04-04T00:51:02.850Z,1007.23
2017-04-04T00:51:29.343Z,1007.41
2017-04-04T00:51:51.097Z,1007.34
2017-04-04T00:52:17.593Z,1007.23
2017-04-04T00:52:39.275Z,1007.21
2017-04-04T00:53:05.885Z,1007.43
2017-04-04T00:53:27.530Z,1007.61
2017-04-04T00:54:20.550Z,1007.29
2017-04-04T00:55:18.841Z,1007.24
2017-04-04T00:56:21.369Z,1007.27
2017-04-04T00:56:43.066Z,1007.01
2017-04-04T00:57:04.781Z,1007.33
2017-04-04T00:57:57.780Z,1007.39
2017-04-04T00:58:24.260Z,1007.30
2017-04-04T00:58:46.028Z,1007.26
2017-04-04T00:59:48.531Z,1007.30
2017-04-04T01:01:22.405Z,1007.40
2017-04-04T01:01:44.109Z,1007.04
2017-04-04T01:02:10.612Z,1007.19
2017-04-04T01:02:32.311Z,1007.14
2017-04-04T01:02:54.093Z,1007.40
2017-04-04T01:03:20.615Z,1007.43
2017-04-04T01:03:42.305Z,1007.26
2017-04-04T01:04:08.927Z,1007.31
2017-04-04T01:04:30.591Z,1007.05
2017-04-04T01:04:52.297Z,1007.32
2017-04-04T01:05:50.754Z,1007.15
2017-04-04T01:06:12.453Z,1007.10
2017-04-04T01:07:10.932Z,1006.98
2017-04-04T01:07:32.789Z,1007.24
2017-04-04T01:08:25.926Z,1007.16
2017-04-04T01:08:47.716Z,1007.24
2017-04-04T01:09:45.997Z,1006.88
2017-04-04T01:10:07.765Z,1007.28
2017-04-04T01:11:06.077Z,1007.10
2017-04-04T01:11:32.729Z,1007.16
2017-04-04T01:11:59.172Z,1006.92
2017-04-04T01:12:20.845Z,1007.01
2017-04-04T01:13:13.945Z,1007.02
2017-04-04T01:14:07.038Z,1007.10
2017-04-04T01:14:28.749Z,1007.15
2017-04-04T01:14:50.456Z,1007.16
2017-04-04T01:15:12.171Z,1007.24
2017-04-04T01:15:38.778Z,1007.39
2017-04-04T01:16:00.476Z,1007.49
2017-04-04T01:16:22.188Z,1007.07
2017-04-04T01:16:48.686Z,1007.19
2017-04-04T01:17:10.475Z,1007.10
2017-04-04T01:18:03.480Z,1006.99
2017-04-04T01:18:30.105Z,1006.94
2017-04-04T01:18:51.757Z,1007.08
2017-04-04T01:19:18.275Z,1007.03
2017-04-04T01:19:39.947Z,1007.14
2017-04-04T01:20:01.715Z,1007.30
2017-04-04T01:20:54.716Z,1006.92
2017-04-04T01:21:47.704Z,1007.20
2017-04-04T01:22:09.415Z,1007.20
2017-04-04T01:22:31.129Z,1007.15
2017-04-04T01:22:52.878Z,1006.93
2017-04-04T01:23:14.585Z,1006.93
2017-04-04T01:23:36.286Z,1007.07
2017-04-04T01:23:57.994Z,1007.22
2017-04-04T01:24:57.696Z,1006.98
2017-04-04T01:25:25.189Z,1007.22
2017-04-04T01:25:46.947Z,1006.93
2017-04-04T01:26:08.661Z,1007.15
2017-04-04T01:26:30.372Z,1006.92
2017-04-04T01:27:23.313Z,1006.95
2017-04-04T01:27:45.014Z,1007.18
2017-04-04T01:28:45.583Z,1007.00
2017-04-04T01:29:07.338Z,1007.18
2017-04-04T01:29:29.120Z,1006.92
2017-04-04T01:29:55.647Z,1007.51
2017-04-04T01:30:17.343Z,1007.28
2017-04-04T01:30:39.117Z,1007.04
2017-04-04T01:31:00.844Z,1006.99
2017-04-04T01:31:22.541Z,1007.06
2017-04-04T01:31:44.234Z,1007.41
2017-04-04T01:32:05.998Z,1007.50
2017-04-04T01:32:27.695Z,1007.57
2017-04-04T01:32:49.421Z,1007.60
2017-04-04T01:33:16.031Z,1006.94
2017-04-04T01:33:37.670Z,1007.29
2017-04-04T01:33:59.372Z,1007.35
2017-04-04T01:34:25.869Z,1007.29
2017-04-04T01:34:47.551Z,1007.29
2017-04-04T01:35:09.247Z,1006.95
2017-04-04T01:35:30.951Z,1007.10
2017-04-04T01:35:52.650Z,1006.98
2017-04-04T01:36:55.157Z,1006.85
2017-04-04T01:37:53.602Z,1006.95
2017-04-04T01:38:51.817Z,1006.90
2017-04-04T01:39:53.153Z,1007.12
2017-04-04T01:40:46.187Z,1007.41
2017-04-04T01:41:44.544Z,1007.45
2017-04-04T01:42:06.249Z,1006.85
2017-04-04T01:43:04.590Z,1006.78
2017-04-04T01:44:02.801Z,1007.09
2017-04-04T01:45:10.094Z,1006.73
2017-04-04T01:45:31.781Z,1007.17
2017-04-04T01:46:24.862Z,1006.97
2017-04-04T01:46:46.585Z,1007.03
2017-04-04T01:47:11.151Z,1007.16
2017-04-04T01:47:32.849Z,1006.92
2017-04-04T01:48:59.335Z,1006.95
2017-04-04T01:49:21.034Z,1007.30
2017-04-04T01:49:42.745Z,1007.31
2017-04-04T01:50:04.541Z,1007.40
2017-04-04T01:50:26.250Z,1007.45
2017-04-04T01:50:52.761Z,1007.63
2017-04-04T01:51:14.452Z,1007.55
2017-04-04T01:51:36.242Z,1007.39
2017-04-04T01:52:02.745Z,1007.13
2017-04-04T01:52:24.499Z,1006.77
2017-04-04T01:52:51.096Z,1006.82
2017-04-04T01:53:12.786Z,1006.76
2017-04-04T01:53:39.291Z,1006.87
2017-04-04T01:54:01.020Z,1007.12
2017-04-04T01:54:27.538Z,1006.95
2017-04-04T01:54:49.218Z,1006.82
2017-04-04T01:55:15.827Z,1007.12
2017-04-04T01:55:37.465Z,1006.91
2017-04-04T01:56:03.959Z,1006.96
2017-04-04T01:56:25.722Z,1007.12
2017-04-04T01:56:47.546Z,1007.07
2017-04-04T01:57:09.249Z,1006.93
2017-04-04T01:57:35.725Z,1007.04
2017-04-04T01:58:02.191Z,1006.93
2017-04-04T01:58:24.003Z,1006.93
2017-04-04T01:58:50.483Z,1007.12
2017-04-04T01:59:12.359Z,1007.30
2017-04-04T01:59:38.844Z,1007.76
2017-04-04T02:00:00.643Z,1007.41
2017-04-04T02:00:22.353Z,1006.93
2017-04-04T02:00:48.832Z,1006.70
2017-04-04T02:01:10.613Z,1006.78
2017-04-04T02:01:32.318Z,1006.95
2017-04-04T02:01:54.046Z,1007.10
2017-04-04T02:02:15.828Z,1007.13
2017-04-04T02:02:37.535Z,1006.93
2017-04-04T02:03:30.557Z,1007.48
2017-04-04T02:03:52.292Z,1007.29
2017-04-04T02:04:18.763Z,1006.95
2017-04-04T02:04:40.636Z,1006.90
2017-04-04T02:05:02.422Z,1007.03
2017-04-04T02:05:24.121Z,1007.11
2017-04-04T02:05:45.823Z,1007.07
2017-04-04T02:06:12.300Z,1007.03
2017-04-04T02:06:34.085Z,1007.26
2017-04-04T02:06:55.823Z,1007.17
2017-04-04T02:07:22.304Z,1007.11
2017-04-04T02:07:44.094Z,1006.91
2017-04-04T02:08:40.102Z,1007.25
2017-04-04T02:10:28.342Z,1007.22
2017-04-04T02:10:49.989Z,1007.22
2017-04-04T02:11:43.018Z,1006.90
2017-04-04T02:12:04.768Z,1006.79
2017-04-04T02:12:57.795Z,1007.26
2017-04-04T02:13:19.502Z,1007.07
2017-04-04T02:13:41.209Z,1007.27
2017-04-04T02:14:02.924Z,1007.18
2017-04-04T02:14:29.395Z,1007.41
2017-04-04T02:14:51.212Z,1007.48
2017-04-04T02:15:49.595Z,1007.03
2017-04-04T02:16:56.882Z,1006.82
2017-04-04T02:17:18.712Z,1007.11
2017-04-04T02:17:40.418Z,1007.08
2017-04-04T02:18:33.440Z,1007.52
2017-04-04T02:18:55.135Z,1007.54
2017-04-04T02:19:16.837Z,1007.24
2017-04-04T02:19:38.546Z,1006.97
2017-04-04T02:20:00.336Z,1006.92
2017-04-04T02:20:53.292Z,1007.19
2017-04-04T02:21:15.093Z,1007.01
2017-04-04T02:21:36.709Z,1007.16
2017-04-04T02:21:58.406Z,1007.04
2017-04-04T02:22:20.141Z,1007.18
2017-04-04T02:23:08.371Z,1007.10
2017-04-04T02:23:30.077Z,1007.08
2017-04-04T02:23:56.580Z,1007.16
2017-04-04T02:24:18.394Z,1007.15
2017-04-04T02:24:40.095Z,1007.12
2017-04-04T02:25:06.603Z,1007.07
2017-04-04T02:25:28.360Z,1006.76
2017-04-04T02:25:50.087Z,1007.24
2017-04-04T02:26:16.554Z,1007.69
2017-04-04T02:26:38.411Z,1007.23
2017-04-04T02:27:00.217Z,1007.43
2017-04-04T02:27:53.178Z,1007.15
2017-04-04T02:28:55.762Z,1007.19
2017-04-04T02:29:48.682Z,1006.97
2017-04-04T02:30:10.488Z,1006.96
2017-04-04T02:30:32.227Z,1006.99
2017-04-04T02:30:53.949Z,1007.02
2017-04-04T02:31:15.645Z,1006.89
2017-04-04T02:31:37.461Z,1007.04
2017-04-04T02:31:59.160Z,1006.96
2017-04-04T02:32:20.888Z,1007.17
2017-04-04T02:32:47.374Z,1007.20
2017-04-04T02:33:09.149Z,1006.99
2017-04-04T02:33:35.643Z,1007.09
2017-04-04T02:33:57.346Z,1007.14
2017-04-04T02:34:23.841Z,1006.89
2017-04-04T02:34:45.637Z,1006.97
2017-04-04T02:35:07.383Z,1007.07
2017-04-04T02:36:14.652Z,1007.05
2017-04-04T02:36:36.447Z,1007.15
2017-04-04T02:36:58.156Z,1007.08
2017-04-04T02:37:51.197Z,1007.13
2017-04-04T02:38:12.905Z,1007.20
2017-04-04T02:39:05.964Z,1007.10
2017-04-04T02:39:27.697Z,1007.12
2017-04-04T02:39:49.399Z,1007.17
2017-04-04T02:40:11.200Z,1007.06
2017-04-04T02:40:33.018Z,1007.28
2017-04-04T02:40:54.809Z,1007.20
2017-04-04T02:41:16.540Z,1007.22
2017-04-04T02:41:38.267Z,1007.26
2017-04-04T02:42:00.070Z,1007.06
2017-04-04T02:42:21.778Z,1007.21
2017-04-04T02:42:43.519Z,1006.98
2017-04-04T02:43:41.888Z,1007.13
2017-04-04T02:44:44.487Z,1006.95
2017-04-04T02:45:06.201Z,1007.08
2017-04-04T02:45:59.281Z,1007.12
2017-04-04T02:46:21.005Z,1007.17
2017-04-04T02:47:14.048Z,1007.12
2017-04-04T02:47:40.558Z,1007.24
2017-04-04T02:48:02.278Z,1007.16
2017-04-04T02:48:24.106Z,1007.18
2017-04-04T02:48:50.567Z,1007.05
2017-04-04T02:49:12.278Z,1007.16
2017-04-04T02:50:19.696Z,1007.14
2017-04-04T02:50:41.325Z,1006.93
2017-04-04T02:51:03.011Z,1007.15
2017-04-04T02:51:29.513Z,1007.03
2017-04-04T02:51:51.329Z,1007.22
2017-04-04T02:52:13.048Z,1007.11
2017-04-04T02:52:34.753Z,1007.36
2017-04-04T02:52:56.539Z,1007.29
2017-04-04T02:53:23.015Z,1007.10
2017-04-04T02:53:44.708Z,1007.01
2017-04-04T02:54:11.182Z,1007.06
2017-04-04T02:54:32.948Z,1006.94
2017-04-04T02:54:59.436Z,1007.30
2017-04-04T02:55:25.907Z,1007.09
2017-04-04T02:55:47.697Z,1007.34
2017-04-04T02:56:14.171Z,1007.02
2017-04-04T02:56:35.872Z,1006.97
2017-04-04T02:57:02.349Z,1006.79
2017-04-04T02:57:24.142Z,1007.02
2017-04-04T02:58:17.221Z,1007.32
2017-04-04T02:58:38.927Z,1007.18
2017-04-04T02:59:05.411Z,1007.19
2017-04-04T02:59:27.205Z,1007.41
2017-04-04T02:59:48.893Z,1007.00
2017-04-04T03:00:10.603Z,1006.99
2017-04-04T03:00:32.312Z,1006.81
2017-04-04T03:00:54.101Z,1006.92
2017-04-04T03:01:15.811Z,1007.17
2017-04-04T03:01:40.464Z,1007.27
2017-04-04T03:02:02.259Z,1007.22
2017-04-04T03:02:23.962Z,1007.10
2017-04-04T03:02:45.747Z,1007.02
2017-04-04T03:03:38.713Z,1007.10
2017-04-04T03:04:37.085Z,1007.10
2017-04-04T03:05:39.689Z,1007.16
2017-04-04T03:06:01.394Z,1007.38
2017-04-04T03:06:23.134Z,1007.23
2017-04-04T03:07:16.157Z,1007.15
2017-04-04T03:07:37.872Z,1007.05
2017-04-04T03:08:40.480Z,1007.14
2017-04-04T03:09:33.450Z,1006.96
2017-04-04T03:10:29.143Z,1007.27
2017-04-04T03:10:55.650Z,1007.17
2017-04-04T03:11:17.394Z,1007.31
2017-04-04T03:11:43.897Z,1007.11
2017-04-04T03:12:05.612Z,1007.17
2017-04-04T03:12:32.208Z,1007.00
2017-04-04T03:13:30.392Z,1007.31
2017-04-04T03:14:28.753Z,1007.14
2017-04-04T03:15:26.975Z,1007.06
2017-04-04T03:15:53.495Z,1007.31
2017-04-04T03:16:51.799Z,1007.08
2017-04-04T03:17:13.529Z,1007.03
2017-04-04T03:17:40.040Z,1007.00
2017-04-04T03:18:01.722Z,1007.04
2017-04-04T03:18:23.478Z,1006.97
2017-04-04T03:18:45.178Z,1007.28
2017-04-04T03:19:06.888Z,1006.91
2017-04-04T03:19:33.497Z,1007.05
2017-04-04T03:19:55.129Z,1007.32
2017-04-04T03:20:48.145Z,1007.15
2017-04-04T03:21:17.520Z,1007.40
2017-04-04T03:21:41.421Z,1007.17
2017-04-04T03:22:34.482Z,1006.98
2017-04-04T03:23:00.991Z,1006.97
2017-04-04T03:23:22.667Z,1006.93
2017-04-04T03:23:49.263Z,1007.03
2017-04-04T03:24:10.977Z,1007.09
2017-04-04T03:24:32.716Z,1007.05
2017-04-04T03:25:39.962Z,1007.14
2017-04-04T03:26:01.661Z,1007.02
2017-04-04T03:26:54.679Z,1007.09
2017-04-04T03:27:21.184Z,1007.03
2017-04-04T03:27:42.878Z,1007.00
2017-04-04T03:28:09.357Z,1006.99
2017-04-04T03:28:31.131Z,1007.08
2017-04-04T03:28:57.641Z,1007.38
2017-04-04T03:29:19.305Z,1006.86
2017-04-04T03:29:45.908Z,1007.03
2017-04-04T03:30:07.549Z,1006.79
2017-04-04T03:30:29.270Z,1006.98
2017-04-04T03:31:53.763Z,1006.78
2017-04-04T03:32:15.451Z,1006.94
2017-04-04T03:32:37.259Z,1007.22
2017-04-04T03:33:39.770Z,1007.02
2017-04-04T03:34:01.466Z,1006.89
2017-04-04T03:34:27.949Z,1006.75
2017-04-04T03:34:49.747Z,1007.04
2017-04-04T03:35:52.258Z,1007.02
2017-04-04T03:36:45.291Z,1007.03
2017-04-04T03:37:11.785Z,1006.92
2017-04-04T03:37:33.469Z,1006.96
2017-04-04T03:38:00.116Z,1007.91
2017-04-04T03:38:21.764Z,1007.01
2017-04-04T03:38:48.269Z,1006.97
2017-04-04T03:39:09.938Z,1007.33
2017-04-04T03:39:36.536Z,1007.42
2017-04-04T03:39:58.168Z,1007.19
2017-04-04T03:40:24.659Z,1006.68
2017-04-04T03:40:46.339Z,1006.82
2017-04-04T03:41:08.128Z,1006.96
2017-04-04T03:41:34.637Z,1006.92
2017-04-04T03:41:56.355Z,1007.05
2017-04-04T03:42:22.966Z,1007.20
2017-04-04T03:42:44.615Z,1007.15
2017-04-04T03:43:11.128Z,1007.34
2017-04-04T03:43:32.840Z,1007.04
2017-04-04T03:43:59.443Z,1007.01
2017-04-04T03:44:25.920Z,1007.07
2017-04-04T03:44:52.422Z,1006.95
2017-04-04T03:45:14.262Z,1006.68
2017-04-04T03:45:35.963Z,1006.90
2017-04-04T03:46:34.268Z,1006.87
2017-04-04T03:47:41.573Z,1007.16
2017-04-04T03:48:03.319Z,1007.52
2017-04-04T03:48:25.040Z,1007.28
2017-04-04T03:48:51.588Z,1007.49
2017-04-04T03:49:13.226Z,1007.37
2017-04-04T03:49:35.028Z,1007.31
2017-04-04T03:50:01.545Z,1006.91
2017-04-04T03:50:23.228Z,1007.01
2017-04-04T03:51:30.538Z,1006.73
2017-04-04T03:51:52.210Z,1006.87
2017-04-04T03:52:45.331Z,1007.26
2017-04-04T03:53:38.380Z,1006.65
2017-04-04T03:54:04.878Z,1006.98
2017-04-04T03:54:26.552Z,1006.84
2017-04-04T03:54:53.164Z,1006.84
2017-04-04T03:55:14.787Z,1006.74
2017-04-04T03:55:41.274Z,1006.72
2017-04-04T03:56:03.069Z,1006.83
2017-04-04T03:56:29.554Z,1006.79
2017-04-04T03:56:51.382Z,1006.85
2017-04-04T03:57:44.548Z,1007.11
2017-04-04T03:58:45.888Z,1007.29
2017-04-04T03:59:48.390Z,1006.96
2017-04-04T04:00:15.005Z,1006.63
2017-04-04T04:00:36.658Z,1006.88
2017-04-04T04:00:58.370Z,1006.64
2017-04-04T04:01:20.079Z,1006.81
2017-04-04T04:01:46.713Z,1006.99
2017-04-04T04:02:08.510Z,1006.87
2017-04-04T04:02:35.005Z,1006.82
2017-04-04T04:02:56.701Z,1006.79
2017-04-04T04:03:23.303Z,1006.81
2017-04-04T04:03:44.948Z,1006.88
2017-04-04T04:04:11.421Z,1006.80
2017-04-04T04:04:33.144Z,1006.85
2017-04-04T04:04:54.943Z,1006.96
2017-04-04T04:05:53.221Z,1006.86
2017-04-04T04:06:20.871Z,1006.87
2017-04-04T04:06:42.558Z,1007.02
2017-04-04T04:07:04.252Z,1006.90
2017-04-04T04:07:25.966Z,1006.81
2017-04-04T04:07:48.722Z,1006.70
2017-04-04T04:08:10.448Z,1007.05
2017-04-04T04:08:36.983Z,1007.11
2017-04-04T04:08:58.701Z,1007.08
2017-04-04T04:09:25.309Z,1006.79
2017-04-04T04:09:46.937Z,1006.94
2017-04-04T04:10:08.630Z,1006.83
2017-04-04T04:10:35.124Z,1006.63
2017-04-04T04:10:56.905Z,1006.80
2017-04-04T04:11:18.624Z,1006.78
2017-04-04T04:11:45.128Z,1006.80
2017-04-04T04:12:06.829Z,1006.76
2017-04-04T04:12:59.771Z,1006.82
2017-04-04T04:13:21.579Z,1007.02
2017-04-04T04:13:48.071Z,1006.76
2017-04-04T04:14:09.763Z,1006.88
2017-04-04T04:15:02.711Z,1006.67
2017-04-04T04:15:55.737Z,1006.84
2017-04-04T04:16:48.702Z,1006.58
2017-04-04T04:17:41.725Z,1006.64
2017-04-04T04:18:34.820Z,1006.89
2017-04-04T04:19:27.780Z,1007.33
2017-04-04T04:19:49.551Z,1006.66
2017-04-04T04:20:16.039Z,1006.59
2017-04-04T04:20:37.739Z,1006.67
2017-04-04T04:21:04.355Z,1006.84
2017-04-04T04:21:26.014Z,1006.77
2017-04-04T04:22:19.092Z,1006.98
2017-04-04T04:23:26.374Z,1006.66
2017-04-04T04:23:48.089Z,1006.67
2017-04-04T04:24:14.633Z,1007.01
2017-04-04T04:24:36.307Z,1007.42
2017-04-04T04:24:58.005Z,1006.73
2017-04-04T04:25:21.947Z,1006.74
2017-04-04T04:25:43.757Z,1006.84
2017-04-04T04:26:36.717Z,1006.87
2017-04-04T04:27:03.204Z,1006.48
2017-04-04T04:27:24.982Z,1006.52
2017-04-04T04:27:51.488Z,1006.91
2017-04-04T04:28:13.264Z,1006.88
2017-04-04T04:29:15.785Z,1006.71
2017-04-04T04:29:37.482Z,1006.83
2017-04-04T04:29:59.234Z,1006.71
2017-04-04T04:30:52.264Z,1006.98
2017-04-04T04:31:18.777Z,1006.83
2017-04-04T04:31:40.505Z,1006.96
2017-04-04T04:32:07.123Z,1006.69
2017-04-04T04:32:28.773Z,1006.76
2017-04-04T04:32:55.292Z,1007.46
2017-04-04T04:33:17.017Z,1006.96
2017-04-04T04:33:43.538Z,1007.07
2017-04-04T04:34:05.363Z,1006.77
2017-04-04T04:35:07.882Z,1007.24
2017-04-04T04:35:29.614Z,1006.99
2017-04-04T04:36:27.877Z,1006.71
2017-04-04T04:36:49.614Z,1006.97
2017-04-04T04:37:11.342Z,1007.14
2017-04-04T04:37:37.950Z,1006.82
2017-04-04T04:37:59.611Z,1006.66
2017-04-04T04:38:21.338Z,1006.50
2017-04-04T04:39:14.348Z,1006.75
2017-04-04T04:40:07.402Z,1006.91
2017-04-04T04:41:00.434Z,1006.47
2017-04-04T04:41:53.511Z,1006.80
2017-04-04T04:42:46.579Z,1006.81
2017-04-04T04:43:08.302Z,1006.87
2017-04-04T04:43:34.780Z,1007.06
2017-04-04T04:43:56.566Z,1007.16
2017-04-04T04:44:57.038Z,1006.85
2017-04-04T04:45:50.100Z,1006.55
2017-04-04T04:46:16.607Z,1006.73
2017-04-04T04:46:38.308Z,1006.60
2017-04-04T04:47:00.109Z,1006.71
2017-04-04T04:47:53.086Z,1006.80
2017-04-04T04:48:46.129Z,1007.11
2017-04-04T04:49:12.636Z,1006.79
2017-04-04T04:49:34.320Z,1006.64
2017-04-04T04:50:27.400Z,1006.74
2017-04-04T04:51:20.434Z,1006.76
2017-04-04T04:52:22.941Z,1006.72
2017-04-04T04:53:15.968Z,1006.93
2017-04-04T04:53:37.679Z,1006.84
2017-04-04T04:53:59.386Z,1006.88
2017-04-04T04:54:21.126Z,1006.96
2017-04-04T04:54:42.879Z,1006.81
2017-04-04T04:55:04.583Z,1006.69
2017-04-04T04:55:26.286Z,1006.69
2017-04-04T04:55:52.887Z,1006.99
2017-04-04T04:56:14.602Z,1006.83
2017-04-04T04:56:36.298Z,1007.33
2017-04-04T04:57:29.325Z,1007.04
2017-04-04T04:58:22.412Z,1007.06
2017-04-04T04:58:44.152Z,1007.02
2017-04-04T04:59:05.860Z,1006.80
2017-04-04T04:59:27.639Z,1007.07
2017-04-04T05:00:30.140Z,1006.72
2017-04-04T05:01:37.426Z,1006.98
2017-04-04T05:01:59.183Z,1006.66
2017-04-04T05:02:25.704Z,1006.54
2017-04-04T05:02:47.468Z,1006.50
2017-04-04T05:03:50.017Z,1006.64
2017-04-04T05:04:11.881Z,1006.69
2017-04-04T05:04:33.642Z,1007.00
2017-04-04T05:05:04.914Z,1006.85
2017-04-04T05:05:58.069Z,1006.68
2017-04-04T05:06:51.113Z,1007.15
2017-04-04T05:07:12.836Z,1006.77
2017-04-04T05:07:39.354Z,1007.14
2017-04-04T05:08:01.087Z,1007.02
2017-04-04T05:08:22.796Z,1007.33
2017-04-04T05:08:44.529Z,1007.38
2017-04-04T05:09:06.248Z,1006.93
2017-04-04T05:10:04.791Z,1006.68
2017-04-04T05:10:31.301Z,1006.84
2017-04-04T05:10:57.926Z,1006.78
2017-04-04T05:11:19.588Z,1006.86
2017-04-04T05:11:41.526Z,1006.68
2017-04-04T05:12:08.166Z,1006.89
2017-04-04T05:12:29.865Z,1006.88
2017-04-04T05:14:04.801Z,1006.96
2017-04-04T05:14:26.520Z,1007.23
2017-04-04T05:14:48.266Z,1007.28
2017-04-04T05:15:09.962Z,1007.04
2017-04-04T05:15:31.668Z,1006.75
2017-04-04T05:15:53.414Z,1006.71
2017-04-04T05:16:55.952Z,1006.81
2017-04-04T05:17:17.687Z,1006.72
2017-04-04T05:17:39.441Z,1006.81
2017-04-04T05:18:01.196Z,1006.98
2017-04-04T05:18:55.320Z,1006.92
2017-04-04T05:19:57.898Z,1006.89
2017-04-04T05:20:19.622Z,1007.03
2017-04-04T05:20:41.376Z,1007.22
2017-04-04T05:21:03.161Z,1007.46
2017-04-04T05:21:25.033Z,1007.14
2017-04-04T05:21:46.779Z,1007.15
2017-04-04T05:22:54.082Z,1006.82
2017-04-04T05:23:15.800Z,1007.30
2017-04-04T05:23:37.538Z,1007.31
2017-04-04T05:24:04.031Z,1007.33
2017-04-04T05:24:25.795Z,1006.92
2017-04-04T05:24:52.324Z,1006.66
2017-04-04T05:25:14.101Z,1007.04
2017-04-04T05:25:40.618Z,1007.06
2017-04-04T05:26:03.425Z,1007.13
2017-04-04T05:26:30.168Z,1006.65
2017-04-04T05:26:51.857Z,1006.98
2017-04-04T05:27:18.409Z,1006.93
2017-04-04T05:27:40.185Z,1007.04
2017-04-04T05:28:06.711Z,1007.27
2017-04-04T05:28:28.491Z,1007.12
2017-04-04T05:28:50.295Z,1006.80
2017-04-04T05:29:17.014Z,1006.94
2017-04-04T05:29:38.759Z,1006.81
2017-04-04T05:30:41.309Z,1007.40
2017-04-04T05:31:43.835Z,1006.80
2017-04-04T05:33:16.143Z,1007.52
2017-04-04T05:33:37.852Z,1007.05
2017-04-04T05:34:45.147Z,1007.05
2017-04-04T05:35:07.026Z,1007.28
2017-04-04T05:35:33.529Z,1007.22
2017-04-04T05:35:55.242Z,1006.90
2017-04-04T05:37:05.190Z,1007.50
2017-04-04T05:37:26.992Z,1007.42
2017-04-04T05:38:29.498Z,1007.09
2017-04-04T05:39:01.854Z,1006.94
2017-04-04T05:39:23.519Z,1006.76
2017-04-04T05:39:50.027Z,1007.00
2017-04-04T05:40:11.866Z,1006.99
2017-04-04T05:40:33.681Z,1007.10
2017-04-04T05:41:26.640Z,1007.30
2017-04-04T05:41:48.724Z,1007.16
2017-04-04T05:42:15.155Z,1007.05
2017-04-04T05:42:41.747Z,1007.02
2017-04-04T05:43:03.443Z,1007.07
2017-04-04T05:43:25.198Z,1007.07
2017-04-04T05:43:46.988Z,1007.21
2017-04-04T05:44:08.693Z,1006.83
2017-04-04T05:44:30.494Z,1007.22
2017-04-04T05:44:52.371Z,1007.42
2017-04-04T05:45:14.117Z,1006.99
2017-04-04T05:46:16.650Z,1006.99
2017-04-04T05:46:38.446Z,1007.05
2017-04-04T05:47:00.192Z,1006.82
2017-04-04T05:47:21.879Z,1006.86
2017-04-04T05:47:48.348Z,1006.93
2017-04-04T05:48:10.199Z,1007.19
2017-04-04T05:49:03.185Z,1007.16
2017-04-04T05:49:29.685Z,1007.15
2017-04-04T05:49:51.402Z,1007.05
2017-04-04T05:50:17.882Z,1007.03
2017-04-04T05:51:22.074Z,1007.03
2017-04-04T05:52:21.311Z,1007.36
2017-04-04T05:52:46.006Z,1007.12
2017-04-04T05:53:53.256Z,1007.02
2017-04-04T05:54:15.057Z,1007.09
2017-04-04T05:54:36.780Z,1007.08
2017-04-04T05:55:29.827Z,1006.90
2017-04-04T05:55:56.592Z,1007.06
2017-04-04T05:56:18.345Z,1007.07
2017-04-04T05:56:44.839Z,1007.23
2017-04-04T05:57:06.547Z,1007.07
2017-04-04T05:57:33.136Z,1007.24
2017-04-04T05:58:04.952Z,1007.07
2017-04-04T05:58:31.517Z,1007.17
2017-04-04T05:58:58.107Z,1007.38
2017-04-04T05:59:19.853Z,1006.99
2017-04-04T05:59:41.579Z,1007.18
2017-04-04T06:00:08.144Z,1007.28
2017-04-04T06:00:29.850Z,1007.05
2017-04-04T06:00:51.627Z,1007.09
2017-04-04T06:01:18.111Z,1007.25
2017-04-04T06:01:42.203Z,1007.29
2017-04-04T06:02:08.771Z,1007.07
2017-04-04T06:02:30.477Z,1007.03
2017-04-04T06:02:57.080Z,1007.29
2017-04-04T06:03:18.788Z,1007.31
2017-04-04T06:03:45.283Z,1007.13
2017-04-04T06:04:07.080Z,1007.09
2017-04-04T06:04:33.670Z,1007.06
2017-04-04T06:04:55.505Z,1007.34
2017-04-04T06:05:22.109Z,1007.34
2017-04-04T06:05:43.911Z,1007.22
2017-04-04T06:06:05.741Z,1007.05
2017-04-04T06:06:27.474Z,1007.15
2017-04-04T06:06:49.673Z,1006.97
2017-04-04T06:07:47.681Z,1007.27
2017-04-04T06:08:09.388Z,1007.35
2017-04-04T06:08:31.097Z,1007.41
2017-04-04T06:08:52.811Z,1007.38
2017-04-04T06:09:55.324Z,1007.27
2017-04-04T06:10:17.206Z,1007.10
2017-04-04T06:11:19.794Z,1007.14
2017-04-04T06:11:41.496Z,1007.41
2017-04-04T06:12:48.776Z,1007.47
2017-04-04T06:13:10.585Z,1007.05
2017-04-04T06:13:32.432Z,1007.06
2017-04-04T06:14:25.381Z,1007.06
2017-04-04T06:14:47.167Z,1007.15
2017-04-04T06:15:16.138Z,1007.32
2017-04-04T06:16:14.619Z,1007.24